sensor_id;sensor_type;location;lat;lon;timestamp;pressure;altitude;pressure_sealevel;temperature;humidity
54556;BME280;57291;37.520;15.106;2023-03-04T00:00:20;100928.06;;;7.07;94.97
54556;BME280;57291;37.520;15.106;2023-03-04T00:02:47;100929.69;;;7.13;94.53
54556;BME280;57291;37.520;15.106;2023-03-04T00:05:15;100941.06;;;7.20;93.90
54556;BME280;57291;37.520;15.106;2023-03-04T00:07:42;100937.84;;;7.28;93.13
54556;BME280;57291;37.520;15.106;2023-03-04T00:10:10;100935.44;;;7.32;91.75
54556;BME280;57291;37.520;15.106;2023-03-04T00:12:37;100935.97;;;7.34;91.72
54556;BME280;57291;37.520;15.106;2023-03-04T00:15:05;100935.97;;;7.34;91.49
54556;BME280;57291;37.520;15.106;2023-03-04T00:17:32;100936.25;;;7.38;90.82
54556;BME280;57291;37.520;15.106;2023-03-04T00:19:59;100933.56;;;7.38;90.36
54556;BME280;57291;37.520;15.106;2023-03-04T00:22:27;100931.38;;;7.40;89.99
54556;BME280;57291;37.520;15.106;2023-03-04T00:24:54;100924.34;;;7.39;89.61
54556;BME280;57291;37.520;15.106;2023-03-04T00:27:21;100933.00;;;7.41;89.32
54556;BME280;57291;37.520;15.106;2023-03-04T00:29:48;100924.88;;;7.36;89.46
54556;BME280;57291;37.520;15.106;2023-03-04T00:32:16;100931.09;;;7.36;89.32
54556;BME280;57291;37.520;15.106;2023-03-04T00:34:44;100932.19;;;7.35;89.50
54556;BME280;57291;37.520;15.106;2023-03-04T00:37:11;100935.16;;;7.34;89.23
54556;BME280;57291;37.520;15.106;2023-03-04T00:39:39;100942.19;;;7.29;89.41
54556;BME280;57291;37.520;15.106;2023-03-04T00:42:06;100938.09;;;7.27;89.74
54556;BME280;57291;37.520;15.106;2023-03-04T00:44:33;100945.13;;;7.23;89.81
54556;BME280;57291;37.520;15.106;2023-03-04T00:47:00;100954.59;;;7.20;89.87
54556;BME280;57291;37.520;15.106;2023-03-04T00:49:28;100954.34;;;7.22;89.75
54556;BME280;57291;37.520;15.106;2023-03-04T00:51:55;100944.06;;;7.24;89.83
54556;BME280;57291;37.520;15.106;2023-03-04T00:54:22;100953.00;;;7.29;89.79
54556;BME280;57291;37.520;15.106;2023-03-04T00:56:49;100942.44;;;7.33;89.43
54556;BME280;57291;37.520;15.106;2023-03-04T00:59:16;100943.56;;;7.37;89.05
54556;BME280;57291;37.520;15.106;2023-03-04T01:01:44;100928.13;;;7.38;88.81
54556;BME280;57291;37.520;15.106;2023-03-04T01:04:11;100929.78;;;7.44;88.18
54556;BME280;57291;37.520;15.106;2023-03-04T01:06:38;100926.81;;;7.50;87.40
54556;BME280;57291;37.520;15.106;2023-03-04T01:09:05;100917.84;;;7.50;87.18
54556;BME280;57291;37.520;15.106;2023-03-04T01:11:33;100920.31;;;7.51;87.08
54556;BME280;57291;37.520;15.106;2023-03-04T01:14:00;100917.03;;;7.49;86.95
54556;BME280;57291;37.520;15.106;2023-03-04T01:16:27;100920.03;;;7.48;86.72
54556;BME280;57291;37.520;15.106;2023-03-04T01:18:54;100912.72;;;7.48;86.94
54556;BME280;57291;37.520;15.106;2023-03-04T01:21:22;100916.78;;;7.51;86.43
54556;BME280;57291;37.520;15.106;2023-03-04T01:23:49;100911.38;;;7.51;86.28
54556;BME280;57291;37.520;15.106;2023-03-04T01:26:16;100902.19;;;7.57;85.81
54556;BME280;57291;37.520;15.106;2023-03-04T01:28:46;100904.34;;;7.60;85.60
54556;BME280;57291;37.520;15.106;2023-03-04T01:31:13;100895.69;;;7.58;85.56
54556;BME280;57291;37.520;15.106;2023-03-04T01:33:40;100894.88;;;7.58;85.33
54556;BME280;57291;37.520;15.106;2023-03-04T01:36:08;100881.91;;;7.55;85.40
54556;BME280;57291;37.520;15.106;2023-03-04T01:38:36;100888.66;;;7.52;85.55
54556;BME280;57291;37.520;15.106;2023-03-04T01:41:03;100884.06;;;7.47;85.20
54556;BME280;57291;37.520;15.106;2023-03-04T01:43:31;100876.22;;;7.46;85.41
54556;BME280;57291;37.520;15.106;2023-03-04T01:45:58;100870.25;;;7.49;85.05
54556;BME280;57291;37.520;15.106;2023-03-04T01:48:32;100857.28;;;7.51;84.71
54556;BME280;57291;37.520;15.106;2023-03-04T01:51:11;100863.50;;;7.51;85.15
54556;BME280;57291;37.520;15.106;2023-03-04T01:53:42;100855.66;;;7.50;84.71
54556;BME280;57291;37.520;15.106;2023-03-04T01:56:23;100844.03;;;7.49;84.60
54556;BME280;57291;37.520;15.106;2023-03-04T02:01:47;100845.41;;;7.42;84.40
54556;BME280;57291;37.520;15.106;2023-03-04T02:04:15;100839.72;;;7.38;84.86
54556;BME280;57291;37.520;15.106;2023-03-04T02:06:44;100835.41;;;7.37;84.90
54556;BME280;57291;37.520;15.106;2023-03-04T02:09:15;100832.16;;;7.35;84.92
54556;BME280;57291;37.520;15.106;2023-03-04T02:11:44;100827.00;;;7.34;84.88
54556;BME280;57291;37.520;15.106;2023-03-04T02:14:12;100827.81;;;7.29;85.14
54556;BME280;57291;37.520;15.106;2023-03-04T02:16:42;100821.88;;;7.22;84.97
54556;BME280;57291;37.520;15.106;2023-03-04T02:21:49;100824.81;;;7.10;85.42
54556;BME280;57291;37.520;15.106;2023-03-04T02:24:30;100832.13;;;7.10;85.90
54556;BME280;57291;37.520;15.106;2023-03-04T02:26:59;100832.13;;;7.10;86.13
54556;BME280;57291;37.520;15.106;2023-03-04T02:29:27;100834.03;;;7.09;85.91
54556;BME280;57291;37.520;15.106;2023-03-04T02:31:55;100837.00;;;7.02;85.70
54556;BME280;57291;37.520;15.106;2023-03-04T02:34:27;100841.03;;;7.00;86.30
54556;BME280;57291;37.520;15.106;2023-03-04T02:36:55;100833.47;;;7.02;85.45
54556;BME280;57291;37.520;15.106;2023-03-04T02:39:34;100843.22;;;7.08;84.76
54556;BME280;57291;37.520;15.106;2023-03-04T02:42:02;100835.91;;;7.14;84.68
54556;BME280;57291;37.520;15.106;2023-03-04T02:44:34;100826.72;;;7.20;83.68
54556;BME280;57291;37.520;15.106;2023-03-04T02:47:04;100833.78;;;7.21;83.27
54556;BME280;57291;37.520;15.106;2023-03-04T02:49:32;100830.78;;;7.22;83.22
54556;BME280;57291;37.520;15.106;2023-03-04T02:52:15;100830.78;;;7.22;82.79
54556;BME280;57291;37.520;15.106;2023-03-04T02:54:44;100826.72;;;7.20;82.49
54556;BME280;57291;37.520;15.106;2023-03-04T02:57:12;100824.56;;;7.17;82.52
54556;BME280;57291;37.520;15.106;2023-03-04T02:59:43;100825.38;;;7.12;82.81
54556;BME280;57291;37.520;15.106;2023-03-04T03:02:15;100816.47;;;7.12;82.62
54556;BME280;57291;37.520;15.106;2023-03-04T03:04:43;100823.22;;;7.14;82.43
54556;BME280;57291;37.520;15.106;2023-03-04T03:07:13;100821.31;;;7.10;82.51
54556;BME280;57291;37.520;15.106;2023-03-04T03:09:41;100818.88;;;7.03;82.56
54556;BME280;57291;37.520;15.106;2023-03-04T03:12:08;100811.31;;;7.05;82.93
54556;BME280;57291;37.520;15.106;2023-03-04T03:14:36;100805.94;;;7.05;83.06
54556;BME280;57291;37.520;15.106;2023-03-04T03:17:08;100806.47;;;7.02;82.79
54556;BME280;57291;37.520;15.106;2023-03-04T03:19:36;100803.75;;;6.97;83.38
54556;BME280;57291;37.520;15.106;2023-03-04T03:22:05;100808.88;;;6.98;83.44
54556;BME280;57291;37.520;15.106;2023-03-04T03:24:33;100805.63;;;6.96;83.63
54556;BME280;57291;37.520;15.106;2023-03-04T03:27:02;100805.66;;;6.91;83.78
54556;BME280;57291;37.520;15.106;2023-03-04T03:29:30;100804.56;;;6.92;84.12
54556;BME280;57291;37.520;15.106;2023-03-04T03:31:57;100811.03;;;6.86;84.29
54556;BME280;57291;37.520;15.106;2023-03-04T03:34:25;100814.25;;;6.83;84.41
54556;BME280;57291;37.520;15.106;2023-03-04T03:36:52;100803.72;;;6.76;84.60
54556;BME280;57291;37.520;15.106;2023-03-04T03:39:19;100811.28;;;6.69;85.11
54556;BME280;57291;37.520;15.106;2023-03-04T03:41:46;100810.19;;;6.65;86.09
54556;BME280;57291;37.520;15.106;2023-03-04T03:44:14;100808.31;;;6.66;86.19
54556;BME280;57291;37.520;15.106;2023-03-04T03:46:41;100800.44;;;6.64;86.20
54556;BME280;57291;37.520;15.106;2023-03-04T03:49:08;100812.09;;;6.70;85.77
54556;BME280;57291;37.520;15.106;2023-03-04T03:51:35;100806.41;;;6.66;85.38
54556;BME280;57291;37.520;15.106;2023-03-04T03:54:03;100808.56;;;6.69;85.22
54556;BME280;57291;37.520;15.106;2023-03-04T03:56:30;100808.56;;;6.69;85.21
54556;BME280;57291;37.520;15.106;2023-03-04T03:58:57;100808.56;;;6.69;85.34
54556;BME280;57291;37.520;15.106;2023-03-04T04:01:24;100799.94;;;6.72;85.49
54556;BME280;57291;37.520;15.106;2023-03-04T04:03:51;100794.00;;;6.75;84.93
54556;BME280;57291;37.520;15.106;2023-03-04T04:06:19;100796.69;;;6.75;84.67
54556;BME280;57291;37.520;15.106;2023-03-04T04:08:46;100783.72;;;6.77;84.51
54556;BME280;57291;37.520;15.106;2023-03-04T04:11:13;100789.13;;;6.77;84.35
54556;BME280;57291;37.520;15.106;2023-03-04T04:13:40;100794.28;;;6.79;84.28
54556;BME280;57291;37.520;15.106;2023-03-04T04:16:09;100797.75;;;6.74;84.41
54556;BME280;57291;37.520;15.106;2023-03-04T04:18:37;100798.84;;;6.68;85.13
54556;BME280;57291;37.520;15.106;2023-03-04T04:21:05;100800.72;;;6.63;84.99
54556;BME280;57291;37.520;15.106;2023-03-04T04:23:32;100801.50;;;6.58;85.74
54556;BME280;57291;37.520;15.106;2023-03-04T04:25:59;100792.84;;;6.51;85.84
54556;BME280;57291;37.520;15.106;2023-03-04T04:28:27;100794.75;;;6.45;86.24
54556;BME280;57291;37.520;15.106;2023-03-04T04:30:55;100797.19;;;6.42;86.74
54556;BME280;57291;37.520;15.106;2023-03-04T04:33:23;100785.81;;;6.40;86.77
54556;BME280;57291;37.520;15.106;2023-03-04T04:35:51;100796.91;;;6.43;86.64
54556;BME280;57291;37.520;15.106;2023-03-04T04:38:18;100781.78;;;6.42;86.16
54556;BME280;57291;37.520;15.106;2023-03-04T04:40:45;100790.41;;;6.44;85.55
54556;BME280;57291;37.520;15.106;2023-03-04T04:43:12;100790.41;;;6.44;85.56
54556;BME280;57291;37.520;15.106;2023-03-04T04:45:40;100783.44;;;6.48;85.14
54556;BME280;57291;37.520;15.106;2023-03-04T04:48:07;100775.88;;;6.55;84.02
54556;BME280;57291;37.520;15.106;2023-03-04T04:50:35;100774.50;;;6.58;83.80
54556;BME280;57291;37.520;15.106;2023-03-04T04:53:02;100777.47;;;6.56;83.66
54556;BME280;57291;37.520;15.106;2023-03-04T04:55:29;100783.16;;;6.55;83.99
54556;BME280;57291;37.520;15.106;2023-03-04T04:57:56;100789.09;;;6.52;83.93
54556;BME280;57291;37.520;15.106;2023-03-04T05:00:24;100781.53;;;6.49;83.59
54556;BME280;57291;37.520;15.106;2023-03-04T05:02:51;100791.78;;;6.42;83.86
54556;BME280;57291;37.520;15.106;2023-03-04T05:05:18;100786.31;;;6.31;83.44
54556;BME280;57291;37.520;15.106;2023-03-04T05:07:45;100800.06;;;6.25;83.88
54556;BME280;57291;37.520;15.106;2023-03-04T05:10:12;100805.97;;;6.17;84.08
54556;BME280;57291;37.520;15.106;2023-03-04T05:12:40;100781.66;;;6.11;84.24
54556;BME280;57291;37.520;15.106;2023-03-04T05:15:07;100795.69;;;6.08;83.96
54556;BME280;57291;37.520;15.106;2023-03-04T05:17:34;100796.19;;;6.05;84.19
54556;BME280;57291;37.520;15.106;2023-03-04T05:20:02;100798.09;;;6.05;84.40
54556;BME280;57291;37.520;15.106;2023-03-04T05:22:30;100799.97;;;6.04;84.46
54556;BME280;57291;37.520;15.106;2023-03-04T05:24:57;100798.91;;;6.00;84.56
54556;BME280;57291;37.520;15.106;2023-03-04T05:27:24;100806.19;;;6.00;84.26
54556;BME280;57291;37.520;15.106;2023-03-04T05:29:51;100801.31;;;6.02;84.40
54556;BME280;57291;37.520;15.106;2023-03-04T05:32:20;100800.84;;;6.15;84.92
54556;BME280;57291;37.520;15.106;2023-03-04T05:34:47;100797.44;;;6.45;83.80
54556;BME280;57291;37.520;15.106;2023-03-04T05:37:14;100804.53;;;6.87;81.61
54556;BME280;57291;37.520;15.106;2023-03-04T05:39:41;100795.09;;;7.36;79.56
54556;BME280;57291;37.520;15.106;2023-03-04T05:42:09;100784.75;;;7.79;76.25
54556;BME280;57291;37.520;15.106;2023-03-04T05:44:36;100805.44;;;8.24;74.41
54556;BME280;57291;37.520;15.106;2023-03-04T05:47:03;100795.44;;;8.74;72.61
54556;BME280;57291;37.520;15.106;2023-03-04T05:49:30;100801.13;;;9.12;70.38
54556;BME280;57291;37.520;15.106;2023-03-04T05:51:58;100809.25;;;9.46;67.95
54556;BME280;57291;37.520;15.106;2023-03-04T05:54:25;100819.78;;;9.77;65.62
54556;BME280;57291;37.520;15.106;2023-03-04T05:56:52;100813.31;;;9.97;64.91
54556;BME280;57291;37.520;15.106;2023-03-04T05:59:20;100824.69;;;10.28;65.13
54556;BME280;57291;37.520;15.106;2023-03-04T06:01:47;100822.06;;;10.42;63.27
54556;BME280;57291;37.520;15.106;2023-03-04T06:04:15;100826.41;;;10.62;62.80
54556;BME280;57291;37.520;15.106;2023-03-04T06:06:42;100823.41;;;10.82;62.11
54556;BME280;57291;37.520;15.106;2023-03-04T06:09:09;100821.66;;;10.91;62.10
54556;BME280;57291;37.520;15.106;2023-03-04T06:11:37;100836.81;;;11.30;60.80
54556;BME280;57291;37.520;15.106;2023-03-04T06:14:04;100828.34;;;11.64;59.76
54556;BME280;57291;37.520;15.106;2023-03-04T06:16:31;100841.31;;;11.86;58.36
54556;BME280;57291;37.520;15.106;2023-03-04T06:18:59;100834.97;;;12.18;57.83
54556;BME280;57291;37.520;15.106;2023-03-04T06:21:26;100847.94;;;12.77;56.40
54556;BME280;57291;37.520;15.106;2023-03-04T06:23:53;100851.97;;;13.38;54.85
54556;BME280;57291;37.520;15.106;2023-03-04T06:26:20;100859.19;;;13.56;51.95
54556;BME280;57291;37.520;15.106;2023-03-04T06:28:48;100868.94;;;13.80;52.33
54556;BME280;57291;37.520;15.106;2023-03-04T06:31:15;100867.09;;;13.98;51.15
54556;BME280;57291;37.520;15.106;2023-03-04T06:33:43;100870.16;;;13.96;50.50
54556;BME280;57291;37.520;15.106;2023-03-04T06:36:10;100874.94;;;14.22;50.12
54556;BME280;57291;37.520;15.106;2023-03-04T06:38:37;100874.09;;;14.52;49.04
54556;BME280;57291;37.520;15.106;2023-03-04T06:41:09;100880.47;;;15.14;48.36
54556;BME280;57291;37.520;15.106;2023-03-04T06:43:37;100880.94;;;15.24;47.60
54556;BME280;57291;37.520;15.106;2023-03-04T06:46:06;100891.38;;;15.40;46.89
54556;BME280;57291;37.520;15.106;2023-03-04T06:48:35;100894.94;;;15.32;47.62
54556;BME280;57291;37.520;15.106;2023-03-04T06:51:10;100885.56;;;15.33;47.42
54556;BME280;57291;37.520;15.106;2023-03-04T06:53:38;100893.31;;;15.13;46.53
54556;BME280;57291;37.520;15.106;2023-03-04T06:56:07;100893.97;;;15.19;47.00
54556;BME280;57291;37.520;15.106;2023-03-04T06:58:35;100894.91;;;15.58;46.49
54556;BME280;57291;37.520;15.106;2023-03-04T07:01:14;100892.72;;;16.07;46.06
54556;BME280;57291;37.520;15.106;2023-03-04T07:03:42;100892.75;;;16.66;43.78
54556;BME280;57291;37.520;15.106;2023-03-04T07:06:14;100900.59;;;17.06;43.75
54556;BME280;57291;37.520;15.106;2023-03-04T07:08:42;100912.66;;;17.14;42.91
54556;BME280;57291;37.520;15.106;2023-03-04T07:11:10;100920.41;;;16.91;42.76
54556;BME280;57291;37.520;15.106;2023-03-04T07:13:37;100916.66;;;16.36;44.48
54556;BME280;57291;37.520;15.106;2023-03-04T07:16:09;100923.09;;;16.31;44.67
54556;BME280;57291;37.520;15.106;2023-03-04T07:18:37;100918.72;;;16.39;45.24
54556;BME280;57291;37.520;15.106;2023-03-04T07:21:05;100922.22;;;16.48;44.77
54556;BME280;57291;37.520;15.106;2023-03-04T07:23:33;100931.31;;;16.70;44.86
54556;BME280;57291;37.520;15.106;2023-03-04T07:26:01;100929.38;;;17.00;44.06
54556;BME280;57291;37.520;15.106;2023-03-04T07:28:28;100928.41;;;16.75;44.19
54556;BME280;57291;37.520;15.106;2023-03-04T07:30:55;100922.19;;;16.57;45.13
54556;BME280;57291;37.520;15.106;2023-03-04T07:33:22;100925.97;;;16.73;46.12
54556;BME280;57291;37.520;15.106;2023-03-04T07:35:58;100927.34;;;16.58;45.02
54556;BME280;57291;37.520;15.106;2023-03-04T07:38:26;100935.19;;;16.39;45.53
54556;BME280;57291;37.520;15.106;2023-03-04T07:40:57;100933.63;;;16.21;46.25
54556;BME280;57291;37.520;15.106;2023-03-04T07:43:24;100933.91;;;15.81;46.62
54556;BME280;57291;37.520;15.106;2023-03-04T07:45:57;100941.47;;;15.49;48.41
54556;BME280;57291;37.520;15.106;2023-03-04T07:48:25;100936.16;;;15.18;48.50
54556;BME280;57291;37.520;15.106;2023-03-04T07:51:16;100944.00;;;14.85;49.95
54556;BME280;57291;37.520;15.106;2023-03-04T07:53:46;100936.56;;;14.68;50.88
54556;BME280;57291;37.520;15.106;2023-03-04T07:56:17;100937.38;;;14.77;51.06
54556;BME280;57291;37.520;15.106;2023-03-04T07:58:45;100940.72;;;14.65;51.29
54556;BME280;57291;37.520;15.106;2023-03-04T08:01:15;100943.13;;;14.27;52.21
54556;BME280;57291;37.520;15.106;2023-03-04T08:03:42;100943.34;;;14.08;53.37
54556;BME280;57291;37.520;15.106;2023-03-04T08:06:11;100945.78;;;13.87;54.38
54556;BME280;57291;37.520;15.106;2023-03-04T08:08:39;100943.94;;;13.51;55.45
54556;BME280;57291;37.520;15.106;2023-03-04T08:11:13;100947.75;;;13.28;56.77
54556;BME280;57291;37.520;15.106;2023-03-04T08:13:40;100944.44;;;13.17;57.73
54556;BME280;57291;37.520;15.106;2023-03-04T08:16:11;100944.91;;;12.69;59.56
54556;BME280;57291;37.520;15.106;2023-03-04T08:18:38;100945.50;;;12.52;60.97
54556;BME280;57291;37.520;15.106;2023-03-04T08:21:11;100936.22;;;12.39;62.08
54556;BME280;57291;37.520;15.106;2023-03-04T08:23:38;100942.59;;;12.35;62.50
54556;BME280;57291;37.520;15.106;2023-03-04T08:26:10;100945.50;;;12.52;63.08
54556;BME280;57291;37.520;15.106;2023-03-04T08:28:38;100943.91;;;12.65;63.34
54556;BME280;57291;37.520;15.106;2023-03-04T08:31:06;100951.78;;;12.80;62.79
54556;BME280;57291;37.520;15.106;2023-03-04T08:33:34;100942.28;;;12.78;63.09
54556;BME280;57291;37.520;15.106;2023-03-04T08:36:01;100934.19;;;12.73;63.55
54556;BME280;57291;37.520;15.106;2023-03-04T08:38:28;100941.25;;;12.87;63.50
54556;BME280;57291;37.520;15.106;2023-03-04T08:40:57;100941.00;;;13.11;63.43
54556;BME280;57291;37.520;15.106;2023-03-04T08:43:26;100939.16;;;13.34;62.67
54556;BME280;57291;37.520;15.106;2023-03-04T08:45:53;100936.13;;;13.36;62.60
54556;BME280;57291;37.520;15.106;2023-03-04T08:48:21;100942.81;;;13.30;63.16
54556;BME280;57291;37.520;15.106;2023-03-04T08:50:49;100934.50;;;13.35;63.31
54556;BME280;57291;37.520;15.106;2023-03-04T08:53:18;100938.03;;;13.22;64.17
54556;BME280;57291;37.520;15.106;2023-03-04T08:55:46;100935.91;;;13.32;64.22
54556;BME280;57291;37.520;15.106;2023-03-04T08:58:13;100947.19;;;13.53;63.91
54556;BME280;57291;37.520;15.106;2023-03-04T09:00:43;100939.16;;;13.57;62.33
54556;BME280;57291;37.520;15.106;2023-03-04T09:03:11;100932.03;;;13.70;61.91
54556;BME280;57291;37.520;15.106;2023-03-04T09:05:38;100935.56;;;13.70;61.20
54556;BME280;57291;37.520;15.106;2023-03-04T09:08:06;100931.44;;;13.81;61.82
54556;BME280;57291;37.520;15.106;2023-03-04T09:10:33;100919.09;;;13.84;60.95
54556;BME280;57291;37.520;15.106;2023-03-04T09:13:01;100915.66;;;14.01;61.78
54556;BME280;57291;37.520;15.106;2023-03-04T09:15:28;100911.56;;;14.21;60.40
54556;BME280;57291;37.520;15.106;2023-03-04T09:17:55;100904.28;;;14.07;60.77
54556;BME280;57291;37.520;15.106;2023-03-04T09:20:22;100905.97;;;14.26;59.34
54556;BME280;57291;37.520;15.106;2023-03-04T09:22:50;100906.72;;;14.09;60.22
54556;BME280;57291;37.520;15.106;2023-03-04T09:25:17;100892.09;;;14.14;60.25
54556;BME280;57291;37.520;15.106;2023-03-04T09:27:44;100890.03;;;14.28;59.41
54556;BME280;57291;37.520;15.106;2023-03-04T09:30:12;100893.16;;;14.35;59.14
54556;BME280;57291;37.520;15.106;2023-03-04T09:32:39;100893.66;;;14.46;59.23
54556;BME280;57291;37.520;15.106;2023-03-04T09:35:07;100893.25;;;14.70;58.10
54556;BME280;57291;37.520;15.106;2023-03-04T09:37:36;100884.28;;;14.87;57.59
54556;BME280;57291;37.520;15.106;2023-03-04T09:40:08;100882.53;;;15.08;57.32
54556;BME280;57291;37.520;15.106;2023-03-04T09:42:45;100877.84;;;15.35;56.48
54556;BME280;57291;37.520;15.106;2023-03-04T09:45:18;100888.63;;;15.40;54.58
54556;BME280;57291;37.520;15.106;2023-03-04T09:47:48;100886.72;;;15.40;53.28
54556;BME280;57291;37.520;15.106;2023-03-04T09:50:17;100877.22;;;15.20;52.74
54556;BME280;57291;37.520;15.106;2023-03-04T09:55:54;100883.50;;;15.12;53.33
54556;BME280;57291;37.520;15.106;2023-03-04T10:01:25;100881.41;;;15.00;53.06
54556;BME280;57291;37.520;15.106;2023-03-04T10:04:11;100884.31;;;15.30;53.33
54556;BME280;57291;37.520;15.106;2023-03-04T10:06:41;100881.38;;;15.53;52.98
54556;BME280;57291;37.520;15.106;2023-03-04T10:09:24;100872.16;;;15.83;53.02
54556;BME280;57291;37.520;15.106;2023-03-04T10:12:02;100858.81;;;16.11;49.41
54556;BME280;57291;37.520;15.106;2023-03-04T10:14:38;100859.41;;;15.96;49.79
54556;BME280;57291;37.520;15.106;2023-03-04T10:19:56;100855.78;;;16.42;49.91
54556;BME280;57291;37.520;15.106;2023-03-04T10:22:30;100850.94;;;16.69;50.04
54556;BME280;57291;37.520;15.106;2023-03-04T10:25:12;100856.53;;;16.81;48.17
54556;BME280;57291;37.520;15.106;2023-03-04T10:27:42;100844.81;;;16.42;48.77
54556;BME280;57291;37.520;15.106;2023-03-04T10:30:19;100843.94;;;16.21;48.23
54556;BME280;57291;37.520;15.106;2023-03-04T10:32:49;100846.69;;;16.21;48.47
54556;BME280;57291;37.520;15.106;2023-03-04T10:35:18;100841.81;;;16.27;47.91
54556;BME280;57291;37.520;15.106;2023-03-04T10:37:49;100826.59;;;16.08;48.30
54556;BME280;57291;37.520;15.106;2023-03-04T10:40:24;100838.09;;;16.31;48.28
54556;BME280;57291;37.520;15.106;2023-03-04T10:42:52;100832.94;;;16.30;47.50
54556;BME280;57291;37.520;15.106;2023-03-04T10:45:25;100831.09;;;16.42;46.07
54556;BME280;57291;37.520;15.106;2023-03-04T10:47:54;100841.19;;;16.51;45.78
54556;BME280;57291;37.520;15.106;2023-03-04T10:50:26;100832.69;;;16.44;46.04
54556;BME280;57291;37.520;15.106;2023-03-04T10:52:55;100840.44;;;16.41;46.67
54556;BME280;57291;37.520;15.106;2023-03-04T10:55:42;100839.03;;;16.65;45.96
54556;BME280;57291;37.520;15.106;2023-03-04T10:58:14;100830.63;;;16.61;44.67
54556;BME280;57291;37.520;15.106;2023-03-04T11:00:57;100845.63;;;16.64;45.39
54556;BME280;57291;37.520;15.106;2023-03-04T11:03:34;100820.00;;;16.39;46.31
54556;BME280;57291;37.520;15.106;2023-03-04T11:06:17;100825.63;;;16.63;46.46
54556;BME280;57291;37.520;15.106;2023-03-04T11:08:52;100836.63;;;16.84;45.90
54556;BME280;57291;37.520;15.106;2023-03-04T11:13:54;100830.22;;;16.51;44.81
54556;BME280;57291;37.520;15.106;2023-03-04T11:16:28;100825.22;;;16.74;45.57
54556;BME280;57291;37.520;15.106;2023-03-04T11:19:02;100826.47;;;16.85;45.39
54556;BME280;57291;37.520;15.106;2023-03-04T11:21:36;100814.59;;;17.14;45.37
54556;BME280;57291;37.520;15.106;2023-03-04T11:24:14;100805.94;;;17.24;45.53
54556;BME280;57291;37.520;15.106;2023-03-04T11:27:14;100807.72;;;17.08;43.85
54556;BME280;57291;37.520;15.106;2023-03-04T11:30:15;100804.91;;;16.75;44.23
54556;BME280;57291;37.520;15.106;2023-03-04T11:32:48;100802.09;;;16.83;44.15
54556;BME280;57291;37.520;15.106;2023-03-04T11:38:03;100796.13;;;17.02;43.86
54556;BME280;57291;37.520;15.106;2023-03-04T11:40:40;100800.69;;;16.98;43.43
54556;BME280;57291;37.520;15.106;2023-03-04T11:43:33;100791.81;;;17.14;43.93
54556;BME280;57291;37.520;15.106;2023-03-04T11:48:48;100780.31;;;16.99;43.95
54556;BME280;57291;37.520;15.106;2023-03-04T11:54:22;100764.78;;;17.03;43.17
54556;BME280;57291;37.520;15.106;2023-03-04T11:56:59;100759.47;;;17.19;43.84
54556;BME280;57291;37.520;15.106;2023-03-04T12:03:09;100761.56;;;17.47;43.22
54556;BME280;57291;37.520;15.106;2023-03-04T12:11:24;100748.78;;;17.63;44.14
54556;BME280;57291;37.520;15.106;2023-03-04T12:35:54;100718.81;;;17.83;44.67
54556;BME280;57291;37.520;15.106;2023-03-04T12:41:46;100721.44;;;17.91;43.78
54556;BME280;57291;37.520;15.106;2023-03-04T12:44:19;100717.22;;;17.94;43.75
54556;BME280;57291;37.520;15.106;2023-03-04T12:47:02;100709.75;;;17.57;44.07
54556;BME280;57291;37.520;15.106;2023-03-04T12:55:22;100697.69;;;17.50;44.74
54556;BME280;57291;37.520;15.106;2023-03-04T12:57:56;100691.53;;;17.53;45.04
54556;BME280;57291;37.520;15.106;2023-03-04T13:00:42;100689.34;;;17.58;45.40
54556;BME280;57291;37.520;15.106;2023-03-04T13:03:22;100684.44;;;17.76;45.35
54556;BME280;57291;37.520;15.106;2023-03-04T13:24:57;100683.38;;;18.18;42.03
54556;BME280;57291;37.520;15.106;2023-03-04T13:27:46;100685.53;;;18.24;41.95
54556;BME280;57291;37.520;15.106;2023-03-04T13:41:23;100674.56;;;18.81;42.28
54556;BME280;57291;37.520;15.106;2023-03-04T13:44:01;100688.94;;;18.62;43.84
54556;BME280;57291;37.520;15.106;2023-03-04T13:46:41;100679.34;;;18.56;44.04
54556;BME280;57291;37.520;15.106;2023-03-04T13:49:22;100676.38;;;18.48;43.30
54556;BME280;57291;37.520;15.106;2023-03-04T13:51:51;100667.22;;;18.44;44.12
54556;BME280;57291;37.520;15.106;2023-03-04T13:54:20;100668.63;;;18.38;43.90
54556;BME280;57291;37.520;15.106;2023-03-04T13:59:34;100675.53;;;18.32;43.52
54556;BME280;57291;37.520;15.106;2023-03-04T14:02:15;100668.72;;;18.14;43.89
54556;BME280;57291;37.520;15.106;2023-03-04T14:07:28;100674.22;;;18.14;43.16
54556;BME280;57291;37.520;15.106;2023-03-04T14:12:47;100660.09;;;18.15;42.25
54556;BME280;57291;37.520;15.106;2023-03-04T14:15:18;100667.44;;;18.23;41.70
54556;BME280;57291;37.520;15.106;2023-03-04T14:17:50;100657.19;;;18.36;41.43
54556;BME280;57291;37.520;15.106;2023-03-04T14:20:30;100668.28;;;18.40;40.98
54556;BME280;57291;37.520;15.106;2023-03-04T14:23:00;100662.69;;;18.36;41.09
54556;BME280;57291;37.520;15.106;2023-03-04T14:25:30;100661.34;;;18.18;41.27
54556;BME280;57291;37.520;15.106;2023-03-04T14:28:14;100665.06;;;17.97;40.91
54556;BME280;57291;37.520;15.106;2023-03-04T14:30:54;100652.84;;;17.70;41.50
54556;BME280;57291;37.520;15.106;2023-03-04T14:33:27;100666.78;;;17.28;42.30
54556;BME280;57291;37.520;15.106;2023-03-04T14:36:00;100665.16;;;17.15;43.23
54556;BME280;57291;37.520;15.106;2023-03-04T14:38:36;100664.97;;;16.87;43.44
54556;BME280;57291;37.520;15.106;2023-03-04T14:41:24;100665.56;;;16.59;43.96
54556;BME280;57291;37.520;15.106;2023-03-04T14:46:33;100671.19;;;16.21;45.51